PWSweather.com
Personal Weather Stations
Station Observations
MDHALE1
Southwest Baltimore Co., Halethorpe, MD 21227

Southwest Baltimore Co.Halethorpe, MD 21227

Lat: 39.23643, Lon: -76.696959

Elevation: 86

Station Type: Davis Vantage Pro2+

http://www.halethorpeweather.com

Latest ConditionsUpdated 6:30:07 AM EST Tuesday, Feb 9, 2016
Currently Today's Max Today's Min Today's Average
Temperature 33.3°F0.7°C 36.6°F2.6°C 33.2°F0.7°C 34.8°F1.6°C
Dew Point 31.2°F-0.4°C 33.4°F0.8°C 30.9°F-0.6°C 32.2°F0.1°C
Winds 4.6 mph NE7.4 kmh NE 4.6 mph NE7.4 kmh NE - 1.7 mph 2.7 kmh
Wind Gusts 10.4 mph16.7 kmh 10.4 mph16.7 kmh - -
Humidity 92% 92% 87% 90%
Pressure 29.57 in1001.4 mb 29.65 in1004.1 mb 29.57 in1001.4 mb -
Precipitation - 0.10 in2.5 mm - -
Hour Temp Dew Point Humidity Winds Wind Gusts Pressure Precip Precip Rate Daily Precip Total
06:30 AM 33.3°F0.7°C 31.2°F-0.4°C 92% 4.6 mph NE7.4 kmh NE 10.4 mph16.7 kmh 29.57 in1001.4 mb - 0.00 in0.0 mm 0.10 in2.5 mm
06:15 AM 33.2°F0.7°C 30.9°F-0.6°C 91% 3.5 mph NE5.6 kmh NE 4.6 mph7.4 kmh 29.57 in1001.4 mb - 0.00 in0.0 mm 0.10 in2.5 mm
06:00 AM 33.2°F0.7°C 30.9°F-0.6°C 91% 1.2 mph NE1.9 kmh NE 3.5 mph5.6 kmh 29.58 in1001.7 mb - 0.00 in0.0 mm 0.10 in2.5 mm
05:45 AM 33.4°F0.8°C 31.1°F-0.5°C 91% 3.5 mph NE5.6 kmh NE 5.8 mph9.3 kmh 29.58 in1001.7 mb - 0.01 in0.3 mm 0.10 in2.5 mm
05:30 AM 33.8°F1.0°C 31.5°F-0.3°C 91% 2.3 mph NE3.7 kmh NE 5.8 mph9.3 kmh 29.58 in1001.7 mb - 0.00 in0.0 mm 0.09 in2.3 mm
05:15 AM 34.0°F1.1°C 31.6°F-0.2°C 91% 2.3 mph NE3.7 kmh NE 4.6 mph7.4 kmh 29.57 in1001.4 mb - 0.00 in0.0 mm 0.09 in2.3 mm
05:00 AM 34.1°F1.2°C 31.7°F-0.2°C 91% 2.3 mph NE3.7 kmh NE 4.6 mph7.4 kmh 29.58 in1001.7 mb - 0.00 in0.0 mm 0.09 in2.3 mm
04:45 AM 34.1°F1.2°C 31.7°F-0.2°C 91% 2.3 mph NE3.7 kmh NE 4.6 mph7.4 kmh 29.57 in1001.4 mb - 0.01 in0.3 mm 0.09 in2.3 mm
04:30 AM 34.0°F1.1°C 31.6°F-0.2°C 91% 1.2 mph NE1.9 kmh NE 2.3 mph3.7 kmh 29.57 in1001.4 mb - 0.00 in0.0 mm 0.08 in2.0 mm
04:15 AM 34.0°F1.1°C 31.6°F-0.2°C 91% 2.3 mph NE3.7 kmh NE 3.5 mph5.6 kmh 29.57 in1001.4 mb - 0.00 in0.0 mm 0.08 in2.0 mm
04:00 AM 34.0°F1.1°C 31.6°F-0.2°C 91% Calm Calm 3.5 mph5.6 kmh 29.58 in1001.7 mb - 0.01 in0.3 mm 0.08 in2.0 mm
03:45 AM 34.2°F1.2°C 31.6°F-0.2°C 90% 1.2 mph NE1.9 kmh NE 4.6 mph7.4 kmh 29.58 in1001.7 mb - 0.01 in0.3 mm 0.07 in1.8 mm
03:30 AM 34.3°F1.3°C 31.7°F-0.2°C 90% 1.2 mph NE1.9 kmh NE 3.5 mph5.6 kmh 29.58 in1001.7 mb - 0.00 in0.0 mm 0.06 in1.5 mm
03:15 AM 34.4°F1.3°C 31.8°F-0.1°C 90% 2.3 mph NE3.7 kmh NE 3.5 mph5.6 kmh 29.59 in1002.0 mb - 0.01 in0.3 mm 0.06 in1.5 mm
03:00 AM 34.6°F1.4°C 32.0°F0.0°C 90% 3.5 mph NE5.6 kmh NE 4.6 mph7.4 kmh 29.59 in1002.0 mb - 0.00 in0.0 mm 0.05 in1.3 mm
02:45 AM 34.9°F1.6°C 32.3°F0.2°C 90% Calm Calm 2.3 mph3.7 kmh 29.60 in1002.4 mb - 0.01 in0.3 mm 0.05 in1.3 mm
02:30 AM 35.1°F1.7°C 32.5°F0.3°C 90% Calm Calm -- 29.60 in1002.4 mb - 0.00 in0.0 mm 0.04 in1.0 mm
02:15 AM 35.5°F1.9°C 32.9°F0.5°C 90% 2.3 mph NE3.7 kmh NE 5.8 mph9.3 kmh 29.61 in1002.7 mb - 0.00 in0.0 mm 0.04 in1.0 mm
02:00 AM 35.9°F2.2°C 32.9°F0.5°C 89% 1.2 mph E1.9 kmh E 3.5 mph5.6 kmh 29.62 in1003.0 mb - 0.01 in0.3 mm 0.04 in1.0 mm
01:45 AM 36.0°F2.2°C 33.1°F0.6°C 89% 1.2 mph E1.9 kmh E 3.5 mph5.6 kmh 29.62 in1003.0 mb - 0.01 in0.3 mm 0.03 in0.8 mm
01:30 AM 36.0°F2.2°C 33.1°F0.6°C 89% 3.5 mph E5.6 kmh E 3.5 mph5.6 kmh 29.63 in1003.4 mb - 0.00 in0.0 mm 0.02 in0.5 mm
01:15 AM 36.1°F2.3°C 33.2°F0.7°C 89% Calm Calm -- 29.63 in1003.4 mb - 0.00 in0.0 mm 0.02 in0.5 mm
01:00 AM 36.3°F2.4°C 33.4°F0.8°C 89% 3.5 mph E5.6 kmh E 3.5 mph5.6 kmh 29.64 in1003.7 mb - 0.00 in0.0 mm 0.02 in0.5 mm
12:45 AM 36.4°F2.4°C 33.2°F0.7°C 88% Calm Calm 1.2 mph1.9 kmh 29.64 in1003.7 mb - 0.00 in0.0 mm 0.02 in0.5 mm
12:30 AM 36.4°F2.4°C 33.2°F0.7°C 88% Calm Calm -- 29.64 in1003.7 mb - 0.01 in0.3 mm 0.02 in0.5 mm
12:15 AM 36.4°F2.4°C 33.2°F0.7°C 88% Calm Calm -- 29.65 in1004.1 mb - 0.01 in0.3 mm 0.01 in0.3 mm
12:01 AM 36.6°F2.6°C 33.1°F0.6°C 87% 1.2 mph ESE1.9 kmh ESE -- 29.65 in1004.1 mb - 0.00 in0.0 mm 0.00 in0.0 mm